Time;durP1;ratioP1;P1;durP2;ratioP2;P2;SDS_P1;SDS_P2;PMS_P1;PMS_P2;Temp;Humidity;BMP_temperature;BMP_pressure;BME280_temperature;BME280_humidity;BME280_pressure;Samples;Min_cycle;Max_cycle;Signal;HPM_P1;HPM_P2
2022/12/28 00:02:24;0.00;0.00;0.62;0.00;0.00;0.62;1.60;0.80;;;22.80;26.80;;;;;;2263889;61;20439;-59
2022/12/28 00:05:09;0.00;0.00;0.62;0.00;0.00;0.62;1.40;0.80;;;22.80;26.80;;;;;;2263502;61;20380;-59
2022/12/28 00:07:54;0.00;0.00;0.62;0.00;0.00;0.62;1.40;0.80;;;22.80;26.80;;;;;;2263635;61;20356;-59
2022/12/28 00:10:39;0.00;0.00;0.62;0.00;0.00;0.62;1.40;0.80;;;22.80;26.80;;;;;;2264205;61;20422;-59
2022/12/28 00:13:25;0.00;0.00;0.62;0.00;0.00;0.62;1.40;0.80;;;22.80;26.80;;;;;;2263255;61;20423;-59
2022/12/28 00:16:17;0.00;0.00;0.62;0.00;0.00;0.62;1.50;0.90;;;22.80;26.80;;;;;;2263912;61;20434;-63
2022/12/28 00:19:05;0.00;0.00;0.62;0.00;0.00;0.62;1.30;0.70;;;22.80;26.80;;;;;;2263133;61;20360;-63
2022/12/28 00:21:53;0.00;0.00;0.62;0.00;0.00;0.62;1.63;1.00;;;22.80;26.90;;;;;;2288770;58;20381;-63
2022/12/28 00:24:38;0.00;0.00;0.62;0.00;0.00;0.62;1.67;1.10;;;22.80;27.50;;;;;;2260121;61;20850;-53
2022/12/28 00:27:23;0.00;0.00;0.62;0.00;0.00;0.62;1.50;0.83;;;22.80;27.00;;;;;;2260053;61;20448;-64
2022/12/28 00:30:11;0.00;0.00;0.62;0.00;0.00;0.62;1.80;1.20;;;22.80;27.00;;;;;;2260038;61;20364;-65
2022/12/28 00:32:55;0.00;0.00;0.62;0.00;0.00;0.62;2.27;1.07;;;22.80;27.10;;;;;;2260095;61;20369;-65
2022/12/28 00:35:40;0.00;0.00;0.62;0.00;0.00;0.62;1.40;0.70;;;22.80;27.10;;;;;;2258798;61;20837;-65
2022/12/28 00:38:25;0.00;0.00;0.62;0.00;0.00;0.62;2.30;0.80;;;22.80;27.10;;;;;;2260113;61;20369;-66
2022/12/28 00:41:10;0.00;0.00;0.62;0.00;0.00;0.62;1.50;0.80;;;22.90;27.20;;;;;;2259479;61;20369;-66
2022/12/28 00:43:55;0.00;0.00;0.62;0.00;0.00;0.62;2.07;0.93;;;22.80;27.10;;;;;;2258620;61;20408;-64
2022/12/28 00:46:41;0.00;0.00;0.62;0.00;0.00;0.62;1.50;1.07;;;22.90;27.20;;;;;;2259944;61;20376;-64
2022/12/28 00:49:26;0.00;0.00;0.62;0.00;0.00;0.62;1.60;1.00;;;22.90;27.20;;;;;;2259555;61;20479;-64
2022/12/28 00:52:11;0.00;0.00;0.62;0.00;0.00;0.62;1.60;0.80;;;22.90;27.10;;;;;;2259644;61;20385;-64
2022/12/28 00:54:55;0.00;0.00;0.62;0.00;0.00;0.62;1.60;0.87;;;22.90;27.00;;;;;;2259866;61;20455;-64
2022/12/28 00:57:41;0.00;0.00;0.62;0.00;0.00;0.62;2.07;0.70;;;22.90;27.00;;;;;;2259130;61;20480;-65
2022/12/28 01:00:27;0.00;0.00;0.62;0.00;0.00;0.62;1.40;0.87;;;22.80;26.90;;;;;;2259413;61;20361;-64
2022/12/28 01:03:13;0.00;0.00;0.62;0.00;0.00;0.62;1.30;0.80;;;22.90;27.00;;;;;;2259282;61;20408;-64
2022/12/28 01:05:58;0.00;0.00;0.62;0.00;0.00;0.62;1.83;0.90;;;22.90;26.90;;;;;;2258863;61;20435;-64
2022/12/28 01:08:43;0.00;0.00;0.62;0.00;0.00;0.62;2.00;1.30;;;22.90;26.70;;;;;;2259800;61;20423;-64
2022/12/28 01:11:30;0.00;0.00;0.62;0.00;0.00;0.62;1.70;1.00;;;22.90;26.60;;;;;;2259519;61;20419;-64
2022/12/28 01:14:15;0.00;0.00;0.62;0.00;0.00;0.62;1.93;1.00;;;22.80;26.50;;;;;;2259086;61;20439;-64
2022/12/28 01:17:00;0.00;0.00;0.62;0.00;0.00;0.62;1.60;1.07;;;22.80;26.40;;;;;;2259671;61;20388;-62
2022/12/28 01:19:46;0.00;0.00;0.62;0.00;0.00;0.62;2.30;1.23;;;22.80;26.40;;;;;;2259201;61;20449;-64
2022/12/28 01:22:30;0.00;0.00;0.62;0.00;0.00;0.62;1.83;1.20;;;22.70;26.30;;;;;;2259205;61;20393;-63
2022/12/28 01:25:16;0.00;0.00;0.62;0.00;0.00;0.62;1.63;0.80;;;22.70;26.80;;;;;;2259410;61;20388;-65
2022/12/28 01:28:00;0.00;0.00;0.62;0.00;0.00;0.62;3.40;1.00;;;22.70;26.20;;;;;;2259954;61;20369;-64
2022/12/28 01:30:45;0.00;0.00;0.62;0.00;0.00;0.62;1.87;1.10;;;22.70;26.10;;;;;;2259831;61;20369;-63
2022/12/28 01:33:29;0.00;0.00;0.62;0.00;0.00;0.62;3.27;1.70;;;22.60;26.00;;;;;;2259315;61;20474;-64
2022/12/28 01:36:18;0.00;0.00;0.62;0.00;0.00;0.62;2.20;1.30;;;22.60;25.90;;;;;;2258709;61;20401;-63
2022/12/28 01:39:05;0.00;0.00;0.62;0.00;0.00;0.62;4.47;1.57;;;22.50;25.80;;;;;;2259754;61;20364;-63
2022/12/28 01:41:50;0.00;0.00;0.62;0.00;0.00;0.62;3.13;1.27;;;22.50;25.80;;;;;;2258573;61;20821;-63
2022/12/28 01:44:45;0.00;0.00;0.62;0.00;0.00;0.62;2.30;1.50;;;22.50;25.70;;;;;;2259407;61;20920;-64
2022/12/28 01:47:34;0.00;0.00;0.62;0.00;0.00;0.62;3.17;1.50;;;22.40;25.50;;;;;;2259419;61;20361;-64
2022/12/28 01:50:26;0.00;0.00;0.62;0.00;0.00;0.62;4.10;1.83;;;22.40;25.50;;;;;;2258623;61;20364;-64
2022/12/28 01:53:12;0.00;0.00;0.62;0.00;0.00;0.62;3.10;1.50;;;22.30;25.30;;;;;;2258939;61;20435;-64
2022/12/28 01:55:57;0.00;0.00;0.62;0.00;0.00;0.62;1.90;1.30;;;22.30;25.30;;;;;;2259474;61;20369;-64
2022/12/28 01:58:42;0.00;0.00;0.62;0.00;0.00;0.62;2.00;1.30;;;22.20;24.90;;;;;;2259027;61;20384;-64
2022/12/28 02:01:28;0.00;0.00;0.62;0.00;0.00;0.62;2.60;1.30;;;22.20;24.70;;;;;;2259111;61;20377;-63
2022/12/28 02:04:13;0.00;0.00;0.62;0.00;0.00;0.62;2.20;1.20;;;22.10;24.50;;;;;;2258850;61;20470;-62
2022/12/28 02:06:57;0.00;0.00;0.62;0.00;0.00;0.62;2.20;1.30;;;22.10;24.70;;;;;;2259635;61;21004;-62
2022/12/28 02:09:44;0.00;0.00;0.62;0.00;0.00;0.62;2.90;1.50;;;22.00;24.50;;;;;;2258911;61;20365;-61
2022/12/28 02:12:31;0.00;0.00;0.62;0.00;0.00;0.62;2.17;1.43;;;22.00;24.50;;;;;;2258921;61;20369;-61
2022/12/28 02:15:16;0.00;0.00;0.62;0.00;0.00;0.62;2.47;1.30;;;21.90;24.40;;;;;;2259054;61;20399;-61
2022/12/28 02:18:02;0.00;0.00;0.62;0.00;0.00;0.62;3.57;1.73;;;21.90;24.20;;;;;;2259316;61;20920;-62
2022/12/28 02:21:14;0.00;0.00;0.62;0.00;0.00;0.62;2.43;1.17;;;21.80;24.10;;;;;;2259447;61;20828;-63
2022/12/28 02:24:27;0.00;0.00;0.62;0.00;0.00;0.62;2.97;1.30;;;21.70;24.10;;;;;;2258905;61;20486;-62
2022/12/28 02:27:25;0.00;0.00;0.62;0.00;0.00;0.62;2.70;1.57;;;21.70;24.60;;;;;;2258917;61;20791;-62
2022/12/28 02:30:13;0.00;0.00;0.62;0.00;0.00;0.62;2.50;1.67;;;21.70;24.00;;;;;;2259451;61;20369;-62
2022/12/28 02:33:08;0.00;0.00;0.62;0.00;0.00;0.62;3.80;1.60;;;21.60;23.90;;;;;;2258623;61;20365;-62
2022/12/28 02:35:58;0.00;0.00;0.62;0.00;0.00;0.62;3.03;1.50;;;21.50;23.90;;;;;;2259298;61;20400;-62
2022/12/28 02:38:48;0.00;0.00;0.62;0.00;0.00;0.62;3.23;1.70;;;21.40;23.80;;;;;;2259501;61;20411;-62
2022/12/28 02:41:35;0.00;0.00;0.62;0.00;0.00;0.62;3.20;1.83;;;21.40;23.80;;;;;;2259800;61;20409;-61
2022/12/28 02:50:41;0.00;0.00;0.62;0.00;0.00;0.62;2.60;1.50;;;21.20;23.80;;;;;;2260053;61;20411;-62
2022/12/28 02:56:06;0.00;0.00;0.62;0.00;0.00;0.62;2.53;1.40;;;21.20;23.80;;;;;;2260075;61;20485;-63
2022/12/28 02:57:44;0.00;0.00;0.62;0.00;0.00;0.62;3.00;1.53;;;21.10;23.80;;;;;;2259612;61;20419;-62
2022/12/28 03:00:41;0.00;0.00;0.62;0.00;0.00;0.62;4.00;2.00;;;21.10;23.80;;;;;;2259689;61;20407;-62
2022/12/28 03:03:37;0.00;0.00;0.62;0.00;0.00;0.62;3.60;1.63;;;21.00;23.70;;;;;;2259513;61;20439;-62
2022/12/28 03:09:42;0.00;0.00;0.62;0.00;0.00;0.62;2.83;1.60;;;20.90;23.80;;;;;;2259565;61;20885;-62
2022/12/28 03:12:31;0.00;0.00;0.62;0.00;0.00;0.62;2.37;1.20;;;20.90;23.80;;;;;;2259074;61;20419;-62
2022/12/28 03:15:28;0.00;0.00;0.62;0.00;0.00;0.62;3.00;1.27;;;20.80;23.90;;;;;;2259801;61;20388;-62
2022/12/28 03:31:05;0.00;0.00;0.62;0.00;0.00;0.62;2.20;1.50;;;20.60;23.80;;;;;;2259530;61;20361;-62
2022/12/28 03:34:05;0.00;0.00;0.62;0.00;0.00;0.62;3.40;1.90;;;20.60;23.90;;;;;;2258909;61;20381;-62
2022/12/28 03:37:00;0.00;0.00;0.62;0.00;0.00;0.62;3.37;2.30;;;20.50;23.90;;;;;;2259674;61;20388;-62
2022/12/28 03:39:51;0.00;0.00;0.62;0.00;0.00;0.62;4.00;1.53;;;20.50;24.00;;;;;;2259526;61;20780;-62
2022/12/28 03:45:54;0.00;0.00;0.62;0.00;0.00;0.62;6.27;2.00;;;20.40;24.10;;;;;;2259436;61;20484;-62
2022/12/28 03:48:40;0.00;0.00;0.62;0.00;0.00;0.62;2.90;1.70;;;20.40;24.10;;;;;;2258870;61;20357;-62
2022/12/28 03:51:29;0.00;0.00;0.62;0.00;0.00;0.62;4.43;1.80;;;20.40;24.10;;;;;;2259318;61;20361;-61
2022/12/28 03:54:18;0.00;0.00;0.62;0.00;0.00;0.62;3.57;2.10;;;20.40;24.20;;;;;;2256622;61;20435;-62
2022/12/28 03:57:03;0.00;0.00;0.62;0.00;0.00;0.62;2.70;1.70;;;20.30;24.20;;;;;;2259612;61;20948;-62
2022/12/28 03:59:52;0.00;0.00;0.62;0.00;0.00;0.62;3.33;2.10;;;20.30;24.30;;;;;;2257045;61;20397;-62
2022/12/28 04:02:37;0.00;0.00;0.62;0.00;0.00;0.62;2.20;1.67;;;20.30;24.30;;;;;;2258910;61;20455;-62
2022/12/28 04:05:22;0.00;0.00;0.62;0.00;0.00;0.62;4.43;1.63;;;20.20;24.20;;;;;;2259281;61;20941;-63
2022/12/28 04:08:07;0.00;0.00;0.62;0.00;0.00;0.62;3.23;1.67;;;20.20;24.30;;;;;;2259797;61;20418;-63
2022/12/28 04:10:53;0.00;0.00;0.62;0.00;0.00;0.62;4.00;1.97;;;20.20;24.30;;;;;;2258850;61;20365;-63
2022/12/28 04:13:38;0.00;0.00;0.62;0.00;0.00;0.62;2.67;1.83;;;20.10;24.30;;;;;;2256429;61;20438;-64
2022/12/28 04:16:26;0.00;0.00;0.62;0.00;0.00;0.62;3.37;1.87;;;20.10;24.30;;;;;;2259340;61;20384;-64
2022/12/28 04:19:10;0.00;0.00;0.62;0.00;0.00;0.62;3.00;1.87;;;20.10;24.30;;;;;;2259224;61;20381;-64
2022/12/28 04:21:55;0.00;0.00;0.62;0.00;0.00;0.62;2.87;1.83;;;20.10;24.40;;;;;;2260191;61;20396;-65
2022/12/28 04:24:40;0.00;0.00;0.62;0.00;0.00;0.62;3.53;1.87;;;20.10;24.40;;;;;;2259126;61;20427;-64
2022/12/28 04:27:27;0.00;0.00;0.62;0.00;0.00;0.62;2.40;1.50;;;20.00;24.40;;;;;;2259461;61;20712;-63
2022/12/28 04:30:15;0.00;0.00;0.62;0.00;0.00;0.62;4.27;2.50;;;20.00;24.50;;;;;;2256481;61;20500;-63
2022/12/28 04:33:00;0.00;0.00;0.62;0.00;0.00;0.62;3.13;1.80;;;20.00;24.50;;;;;;2258718;61;20369;-63
2022/12/28 04:35:46;0.00;0.00;0.62;0.00;0.00;0.62;2.20;1.23;;;20.00;24.50;;;;;;2259646;61;20396;-65
2022/12/28 04:38:30;0.00;0.00;0.62;0.00;0.00;0.62;2.30;1.53;;;19.90;24.40;;;;;;2259215;61;20384;-65
2022/12/28 04:41:16;0.00;0.00;0.62;0.00;0.00;0.62;3.30;1.63;;;19.90;25.00;;;;;;2259452;61;20371;-65
2022/12/28 04:44:02;0.00;0.00;0.62;0.00;0.00;0.62;2.70;1.37;;;19.90;24.50;;;;;;2259810;61;20389;-65
2022/12/28 04:46:47;0.00;0.00;0.62;0.00;0.00;0.62;3.03;1.53;;;19.90;24.50;;;;;;2259240;61;20610;-65
2022/12/28 04:49:31;0.00;0.00;0.62;0.00;0.00;0.62;2.67;1.93;;;19.80;24.50;;;;;;2259919;61;20461;-64
2022/12/28 04:52:16;0.00;0.00;0.62;0.00;0.00;0.62;2.47;1.33;;;19.80;24.50;;;;;;2259674;61;20897;-65
2022/12/28 04:55:01;0.00;0.00;0.62;0.00;0.00;0.62;2.80;1.43;;;19.80;24.50;;;;;;2259039;61;20416;-62
2022/12/28 04:57:46;0.00;0.00;0.62;0.00;0.00;0.62;2.37;1.50;;;19.80;24.60;;;;;;2259807;61;20463;-62
2022/12/28 05:00:32;0.00;0.00;0.62;0.00;0.00;0.62;3.73;1.77;;;19.70;24.50;;;;;;2259639;61;20885;-62
2022/12/28 05:03:17;0.00;0.00;0.62;0.00;0.00;0.62;2.83;1.80;;;19.70;24.60;;;;;;2259056;61;20397;-65
2022/12/28 05:06:03;0.00;0.00;0.62;0.00;0.00;0.62;4.03;2.00;;;19.70;24.60;;;;;;2259837;61;20987;-63
2022/12/28 05:08:49;0.00;0.00;0.62;0.00;0.00;0.62;3.40;1.87;;;19.70;24.60;;;;;;2259400;61;20884;-63
2022/12/28 05:11:34;0.00;0.00;0.62;0.00;0.00;0.62;2.30;1.90;;;19.60;24.50;;;;;;2259775;61;20369;-63
2022/12/28 05:14:18;0.00;0.00;0.62;0.00;0.00;0.62;2.33;1.40;;;19.60;24.50;;;;;;2259372;61;20426;-63
2022/12/28 05:17:05;0.00;0.00;0.62;0.00;0.00;0.62;3.93;1.60;;;19.60;24.60;;;;;;2259412;61;20388;-63
2022/12/28 05:19:49;0.00;0.00;0.62;0.00;0.00;0.62;2.17;1.40;;;19.60;24.60;;;;;;2259946;61;20369;-63
2022/12/28 05:22:34;0.00;0.00;0.62;0.00;0.00;0.62;2.97;1.70;;;19.60;24.70;;;;;;2259693;61;20827;-63
2022/12/28 05:25:19;0.00;0.00;0.62;0.00;0.00;0.62;3.47;1.97;;;19.50;24.60;;;;;;2259329;61;20404;-63
2022/12/28 05:28:04;0.00;0.00;0.62;0.00;0.00;0.62;4.30;2.27;;;19.50;24.70;;;;;;2258857;61;20642;-63
2022/12/28 05:30:49;0.00;0.00;0.62;0.00;0.00;0.62;2.40;1.80;;;19.40;24.60;;;;;;2258928;61;20437;-64
2022/12/28 05:33:36;0.00;0.00;0.62;0.00;0.00;0.62;2.47;1.80;;;19.40;24.70;;;;;;2258878;61;20383;-62
2022/12/28 05:36:24;0.00;0.00;0.62;0.00;0.00;0.62;3.47;1.67;;;19.40;24.80;;;;;;2260771;61;20405;-64
2022/12/28 05:39:09;0.00;0.00;0.62;0.00;0.00;0.62;3.70;2.00;;;19.30;24.90;;;;;;2262581;61;20372;-64
2022/12/28 05:41:54;0.00;0.00;0.62;0.00;0.00;0.62;3.97;1.77;;;19.30;25.00;;;;;;2263397;61;20995;-63
2022/12/28 05:44:38;0.00;0.00;0.62;0.00;0.00;0.62;3.10;1.70;;;19.30;25.00;;;;;;2263181;61;20379;-64
2022/12/28 05:47:23;0.00;0.00;0.62;0.00;0.00;0.62;3.10;1.80;;;19.30;25.70;;;;;;2262833;61;20384;-64
2022/12/28 05:50:09;0.00;0.00;0.62;0.00;0.00;0.62;2.90;1.67;;;19.20;25.10;;;;;;2263436;61;20360;-62
2022/12/28 05:52:54;0.00;0.00;0.62;0.00;0.00;0.62;3.30;1.80;;;19.30;25.30;;;;;;2263322;61;20388;-64
2022/12/28 05:55:38;0.00;0.00;0.62;0.00;0.00;0.62;3.80;1.90;;;19.30;25.30;;;;;;2263793;61;20479;-63
2022/12/28 05:58:23;0.00;0.00;0.62;0.00;0.00;0.62;2.70;1.77;;;19.30;25.30;;;;;;2263479;61;20384;-62
2022/12/28 06:01:11;0.00;0.00;0.62;0.00;0.00;0.62;2.70;1.70;;;19.20;25.30;;;;;;2263200;61;20364;-62
2022/12/28 06:03:58;0.00;0.00;0.62;0.00;0.00;0.62;2.60;1.80;;;19.20;25.30;;;;;;2263534;61;20813;-62
2022/12/28 06:06:46;0.00;0.00;0.62;0.00;0.00;0.62;2.70;1.87;;;19.20;25.40;;;;;;2263698;61;20360;-62
2022/12/28 06:09:31;0.00;0.00;0.62;0.00;0.00;0.62;3.33;1.63;;;19.20;25.40;;;;;;2263414;61;20360;-64
2022/12/28 06:12:17;0.00;0.00;0.62;0.00;0.00;0.62;2.90;1.83;;;19.20;25.40;;;;;;2262963;61;20849;-65
2022/12/28 06:15:01;0.00;0.00;0.62;0.00;0.00;0.62;1.90;1.30;;;19.20;25.40;;;;;;2262963;61;20788;-65
2022/12/28 06:17:46;0.00;0.00;0.62;0.00;0.00;0.62;3.63;1.67;;;19.20;25.50;;;;;;2263441;61;20399;-65
2022/12/28 06:20:31;0.00;0.00;0.62;0.00;0.00;0.62;2.77;1.60;;;19.20;25.50;;;;;;2263373;61;20453;-65
2022/12/28 06:23:17;0.00;0.00;0.62;0.00;0.00;0.62;3.27;1.80;;;19.20;26.10;;;;;;2262309;61;20392;-62
2022/12/28 06:26:05;0.00;0.00;0.62;0.00;0.00;0.62;2.47;1.57;;;19.20;25.60;;;;;;2263169;61;20444;-62
2022/12/28 06:28:50;0.00;0.00;0.62;0.00;0.00;0.62;2.23;1.60;;;19.20;25.60;;;;;;2263096;61;20367;-63
2022/12/28 06:31:38;0.00;0.00;0.62;0.00;0.00;0.62;2.20;1.50;;;19.20;25.70;;;;;;2262994;61;20360;-64
2022/12/28 06:34:23;0.00;0.00;0.62;0.00;0.00;0.62;2.53;1.57;;;19.20;25.70;;;;;;2262729;61;20387;-64
2022/12/28 06:37:08;0.00;0.00;0.62;0.00;0.00;0.62;2.80;1.57;;;19.20;25.80;;;;;;2263229;61;20966;-64
2022/12/28 06:39:54;0.00;0.00;0.62;0.00;0.00;0.62;2.93;1.50;;;19.10;25.80;;;;;;2262954;61;20942;-64
2022/12/28 06:42:39;0.00;0.00;0.62;0.00;0.00;0.62;2.13;1.50;;;19.10;25.90;;;;;;2262652;61;20814;-63
2022/12/28 06:45:24;0.00;0.00;0.62;0.00;0.00;0.62;2.80;1.57;;;19.10;26.00;;;;;;2262303;61;20372;-64
2022/12/28 06:48:10;0.00;0.00;0.62;0.00;0.00;0.62;2.53;1.67;;;19.10;26.00;;;;;;2263132;61;20431;-64
2022/12/28 06:50:56;0.00;0.00;0.62;0.00;0.00;0.62;2.83;1.50;;;19.10;26.00;;;;;;2263138;61;20392;-64
2022/12/28 06:53:41;0.00;0.00;0.62;0.00;0.00;0.62;3.00;1.47;;;19.10;26.00;;;;;;2262741;61;20383;-65
2022/12/28 06:56:31;0.00;0.00;0.62;0.00;0.00;0.62;2.17;1.03;;;19.10;26.00;;;;;;2262758;61;20783;-65
2022/12/28 06:59:16;0.00;0.00;0.62;0.00;0.00;0.62;2.00;1.50;;;19.10;26.00;;;;;;2263116;61;20979;-65
2022/12/28 07:02:00;0.00;0.00;0.62;0.00;0.00;0.62;2.73;1.50;;;19.10;26.00;;;;;;2263250;61;20422;-65
2022/12/28 07:04:45;0.00;0.00;0.62;0.00;0.00;0.62;1.90;1.33;;;19.10;26.00;;;;;;2263207;61;20995;-65
2022/12/28 07:07:30;0.00;0.00;0.62;0.00;0.00;0.62;2.77;1.40;;;19.10;26.00;;;;;;2263107;61;20399;-65
2022/12/28 07:10:15;0.00;0.00;0.62;0.00;0.00;0.62;2.27;1.50;;;19.10;26.00;;;;;;2262941;61;20460;-63
2022/12/28 07:13:01;0.00;0.00;0.62;0.00;0.00;0.62;2.00;1.30;;;19.10;26.00;;;;;;2262875;61;20344;-61
2022/12/28 07:15:46;0.00;0.00;0.62;0.00;0.00;0.62;2.37;1.67;;;19.10;26.00;;;;;;2262768;61;20450;-63
2022/12/28 07:18:32;0.00;0.00;0.62;0.00;0.00;0.62;3.20;1.40;;;19.10;26.10;;;;;;2263108;61;20837;-63
2022/12/28 07:21:21;0.00;0.00;0.62;0.00;0.00;0.62;2.00;1.33;;;19.10;26.20;;;;;;2262965;61;20371;-63
2022/12/28 07:24:07;0.00;0.00;0.62;0.00;0.00;0.62;2.00;1.27;;;19.10;26.30;;;;;;2262558;61;20430;-63
2022/12/28 07:26:52;0.00;0.00;0.62;0.00;0.00;0.62;1.80;1.10;;;19.10;26.30;;;;;;2263361;61;20764;-63
2022/12/28 07:29:40;0.00;0.00;0.62;0.00;0.00;0.62;2.20;1.50;;;19.00;26.30;;;;;;2263206;61;20395;-63
2022/12/28 07:32:25;0.00;0.00;0.62;0.00;0.00;0.62;1.83;1.20;;;19.00;26.30;;;;;;2263616;61;20364;-62
2022/12/28 07:35:10;0.00;0.00;0.62;0.00;0.00;0.62;1.90;1.23;;;19.00;26.40;;;;;;2260005;61;20392;-65
2022/12/28 07:37:54;0.00;0.00;0.62;0.00;0.00;0.62;2.80;1.90;;;19.00;26.50;;;;;;2259015;61;20446;-64
2022/12/28 07:40:39;0.00;0.00;0.62;0.00;0.00;0.62;2.07;1.67;;;19.00;26.40;;;;;;2260034;61;20360;-64
2022/12/28 07:43:24;0.00;0.00;0.62;0.00;0.00;0.62;2.00;1.20;;;19.00;26.50;;;;;;2259815;61;20388;-65
2022/12/28 07:46:12;0.00;0.00;0.62;0.00;0.00;0.62;1.70;0.90;;;18.90;26.50;;;;;;2259538;61;21023;-62
2022/12/28 07:48:57;0.00;0.00;0.62;0.00;0.00;0.62;2.00;1.20;;;18.90;26.60;;;;;;2259784;61;20369;-63
2022/12/28 07:51:42;0.00;0.00;0.62;0.00;0.00;0.62;1.93;1.20;;;18.90;26.60;;;;;;2259089;61;20423;-65
2022/12/28 07:54:26;0.00;0.00;0.62;0.00;0.00;0.62;2.13;1.13;;;18.90;26.70;;;;;;2259715;61;20408;-65
2022/12/28 07:57:11;0.00;0.00;0.62;0.00;0.00;0.62;1.83;1.03;;;18.90;26.80;;;;;;2259600;61;20416;-64
2022/12/28 07:59:56;0.00;0.00;0.62;0.00;0.00;0.62;2.33;1.20;;;18.90;26.80;;;;;;2259570;61;20369;-65
2022/12/28 08:02:42;0.00;0.00;0.62;0.00;0.00;0.62;2.07;1.27;;;18.90;26.90;;;;;;2259633;61;20368;-61
2022/12/28 08:05:26;0.00;0.00;0.62;0.00;0.00;0.62;1.50;0.97;;;18.90;26.90;;;;;;2258862;61;20369;-63
2022/12/28 08:08:11;0.00;0.00;0.62;0.00;0.00;0.62;1.80;1.17;;;18.90;27.00;;;;;;2258781;61;20365;-60
2022/12/28 08:11:00;0.00;0.00;0.62;0.00;0.00;0.62;2.30;1.20;;;18.90;27.10;;;;;;2258834;61;20365;-62
2022/12/28 08:13:47;0.00;0.00;0.62;0.00;0.00;0.62;2.23;1.00;;;18.90;27.20;;;;;;2259308;61;20405;-55
2022/12/28 08:16:35;0.00;0.00;0.62;0.00;0.00;0.62;1.67;1.20;;;18.80;27.20;;;;;;2260028;61;20397;-65
2022/12/28 08:19:21;0.00;0.00;0.62;0.00;0.00;0.62;1.90;1.10;;;18.90;27.30;;;;;;2259807;61;20445;-60
2022/12/28 08:22:06;0.00;0.00;0.62;0.00;0.00;0.62;2.30;1.30;;;18.80;27.30;;;;;;2259078;61;20765;-54
2022/12/28 08:24:51;0.00;0.00;0.62;0.00;0.00;0.62;3.00;1.20;;;18.80;27.30;;;;;;2342861;53;20432;-52
2022/12/28 08:27:36;0.00;0.00;0.62;0.00;0.00;0.62;4.20;1.10;;;18.80;27.40;;;;;;2259394;61;20365;-54
2022/12/28 08:30:22;0.00;0.00;0.62;0.00;0.00;0.62;1.50;0.93;;;18.80;27.40;;;;;;2260073;61;20368;-63
2022/12/28 08:33:07;0.00;0.00;0.62;0.00;0.00;0.62;1.50;0.93;;;18.80;27.50;;;;;;2260525;61;20365;-62
2022/12/28 08:35:56;0.00;0.00;0.62;0.00;0.00;0.62;1.77;1.00;;;18.80;27.50;;;;;;2539906;53;20360;-61
2022/12/28 08:38:43;0.00;0.00;0.62;0.00;0.00;0.62;3.20;1.27;;;18.80;27.60;;;;;;2263288;61;20443;-62
2022/12/28 08:41:29;0.00;0.00;0.62;0.00;0.00;0.62;1.87;0.80;;;18.80;27.60;;;;;;2259828;61;20392;-62
2022/12/28 08:44:15;0.00;0.00;0.62;0.00;0.00;0.62;1.63;1.07;;;18.80;27.60;;;;;;2259626;61;20406;-63
2022/12/28 08:47:00;0.00;0.00;0.62;0.00;0.00;0.62;2.10;1.17;;;18.80;27.70;;;;;;2256485;61;20380;-54
2022/12/28 08:49:45;0.00;0.00;0.62;0.00;0.00;0.62;1.97;0.90;;;18.80;27.70;;;;;;2259939;61;20765;-62
2022/12/28 08:52:33;0.00;0.00;0.62;0.00;0.00;0.62;1.90;0.97;;;18.80;27.70;;;;;;2407790;45;20396;-62
2022/12/28 08:55:20;0.00;0.00;0.62;0.00;0.00;0.62;2.33;1.00;;;18.80;27.80;;;;;;2284327;61;20388;-64
2022/12/28 08:58:06;0.00;0.00;0.62;0.00;0.00;0.62;2.10;1.10;;;18.80;27.80;;;;;;2259995;61;20798;-65
2022/12/28 09:00:51;0.00;0.00;0.62;0.00;0.00;0.62;2.03;1.00;;;18.80;27.90;;;;;;2262468;61;20365;-64
2022/12/28 09:03:36;0.00;0.00;0.62;0.00;0.00;0.62;2.03;1.00;;;18.80;27.90;;;;;;2264028;61;20916;-66
2022/12/28 09:06:24;0.00;0.00;0.62;0.00;0.00;0.62;1.63;0.93;;;18.80;27.90;;;;;;2263789;61;20368;-66
2022/12/28 09:09:17;0.00;0.00;0.62;0.00;0.00;0.62;1.80;1.37;;;18.80;28.00;;;;;;2264354;61;20452;-67
2022/12/28 09:12:06;0.00;0.00;0.62;0.00;0.00;0.62;2.20;1.20;;;18.80;28.00;;;;;;2263842;61;20376;-58
2022/12/28 09:14:53;0.00;0.00;0.62;0.00;0.00;0.62;1.50;0.90;;;18.80;28.00;;;;;;2263541;61;20379;-60
2022/12/28 09:17:41;0.00;0.00;0.62;0.00;0.00;0.62;1.73;0.80;;;18.80;28.00;;;;;;2263840;61;20543;-65
2022/12/28 09:20:26;0.00;0.00;0.62;0.00;0.00;0.62;1.30;0.80;;;18.90;28.10;;;;;;2263259;61;20368;-65
2022/12/28 09:23:11;0.00;0.00;0.62;0.00;0.00;0.62;1.60;0.80;;;18.90;28.10;;;;;;2263032;61;20377;-54
2022/12/28 09:26:03;0.00;0.00;0.62;0.00;0.00;0.62;1.63;0.90;;;18.90;28.10;;;;;;2263751;61;20368;-55
2022/12/28 09:28:50;0.00;0.00;0.62;0.00;0.00;0.62;1.30;0.80;;;18.90;28.10;;;;;;2263289;61;20445;-60
2022/12/28 09:31:37;0.00;0.00;0.62;0.00;0.00;0.62;1.70;0.90;;;19.00;28.10;;;;;;2263256;61;20364;-50
2022/12/28 09:34:22;0.00;0.00;0.62;0.00;0.00;0.62;1.97;1.27;;;19.00;28.10;;;;;;2263633;61;20553;-62
2022/12/28 09:37:07;0.00;0.00;0.62;0.00;0.00;0.62;2.40;1.00;;;19.00;28.00;;;;;;2313770;57;20383;-62
2022/12/28 09:39:53;0.00;0.00;0.62;0.00;0.00;0.62;2.50;1.00;;;19.00;28.00;;;;;;2263760;61;20930;-62
2022/12/28 09:42:42;0.00;0.00;0.62;0.00;0.00;0.62;1.50;0.90;;;19.10;28.10;;;;;;2263133;61;20386;-64
2022/12/28 09:45:27;0.00;0.00;0.62;0.00;0.00;0.62;1.63;1.17;;;19.10;28.20;;;;;;2261533;61;20442;-61
2022/12/28 09:48:17;0.00;0.00;0.62;0.00;0.00;0.62;1.70;0.90;;;19.10;28.10;;;;;;2261011;61;20381;-62
2022/12/28 09:51:03;0.00;0.00;0.62;0.00;0.00;0.62;2.47;0.93;;;19.10;28.10;;;;;;2260165;61;20822;-64
2022/12/28 09:53:48;0.00;0.00;0.62;0.00;0.00;0.62;1.70;1.13;;;19.20;28.20;;;;;;2259102;61;20472;-64
2022/12/28 09:56:36;0.00;0.00;0.62;0.00;0.00;0.62;2.53;1.10;;;19.20;28.20;;;;;;2263149;61;20364;-65
2022/12/28 09:59:29;0.00;0.00;0.62;0.00;0.00;0.62;1.40;0.80;;;19.20;28.20;;;;;;2263201;61;20922;-64
2022/12/28 10:02:22;0.00;0.00;0.62;0.00;0.00;0.62;2.10;1.00;;;19.20;28.20;;;;;;2263708;61;20399;-64
2022/12/28 10:05:08;0.00;0.00;0.62;0.00;0.00;0.62;1.80;1.03;;;19.20;28.20;;;;;;2262792;61;20423;-62
2022/12/28 10:07:56;0.00;0.00;0.62;0.00;0.00;0.62;1.93;1.00;;;19.30;28.30;;;;;;2263650;61;20363;-65
2022/12/28 10:10:42;0.00;0.00;0.62;0.00;0.00;0.62;2.23;0.90;;;19.30;28.30;;;;;;2262812;61;20360;-64
2022/12/28 10:13:35;0.00;0.00;0.62;0.00;0.00;0.62;1.63;1.10;;;19.30;28.30;;;;;;2263047;61;20915;-64
2022/12/28 10:16:24;0.00;0.00;0.62;0.00;0.00;0.62;1.40;0.80;;;19.30;28.30;;;;;;2263690;61;20360;-63
2022/12/28 10:19:14;0.00;0.00;0.62;0.00;0.00;0.62;1.40;0.90;;;19.30;28.30;;;;;;2263324;61;20422;-63
2022/12/28 10:22:02;0.00;0.00;0.62;0.00;0.00;0.62;2.50;1.13;;;19.30;28.30;;;;;;2263587;61;20570;-64
2022/12/28 10:24:47;0.00;0.00;0.62;0.00;0.00;0.62;2.10;1.27;;;19.30;28.30;;;;;;2263151;61;20577;-64
2022/12/28 10:27:32;0.00;0.00;0.62;0.00;0.00;0.62;2.17;1.10;;;19.40;28.30;;;;;;2263169;61;20367;-62
2022/12/28 10:30:20;0.00;0.00;0.62;0.00;0.00;0.62;1.50;0.93;;;19.40;28.30;;;;;;2263604;61;20391;-63
2022/12/28 10:33:14;0.00;0.00;0.62;0.00;0.00;0.62;2.43;1.17;;;19.40;28.30;;;;;;2263042;61;20391;-62
2022/12/28 10:35:59;0.00;0.00;0.62;0.00;0.00;0.62;1.70;1.00;;;19.40;28.30;;;;;;2263046;61;20386;-62
2022/12/28 10:38:51;0.00;0.00;0.62;0.00;0.00;0.62;2.43;1.43;;;19.50;28.40;;;;;;2263433;61;20437;-57
2022/12/28 10:41:39;0.00;0.00;0.62;0.00;0.00;0.62;1.60;0.90;;;19.50;28.40;;;;;;2262977;61;20364;-61
2022/12/28 10:44:29;0.00;0.00;0.62;0.00;0.00;0.62;1.80;1.00;;;19.50;28.40;;;;;;2263581;61;20924;-63
2022/12/28 10:47:26;0.00;0.00;0.62;0.00;0.00;0.62;1.70;0.90;;;19.50;28.30;;;;;;2263603;61;20406;-62
2022/12/28 10:50:49;0.00;0.00;0.62;0.00;0.00;0.62;1.60;1.20;;;19.50;28.40;;;;;;2263352;61;20368;-63
2022/12/28 10:53:42;0.00;0.00;0.62;0.00;0.00;0.62;1.87;1.10;;;19.50;28.30;;;;;;2263388;61;20384;-61
2022/12/28 10:56:29;0.00;0.00;0.62;0.00;0.00;0.62;3.23;1.20;;;19.50;28.30;;;;;;2263005;61;21047;-62
2022/12/28 10:59:26;0.00;0.00;0.62;0.00;0.00;0.62;2.00;1.10;;;19.50;28.30;;;;;;2263480;61;20409;-63
2022/12/28 11:02:26;0.00;0.00;0.62;0.00;0.00;0.62;2.20;1.30;;;19.50;28.30;;;;;;2263937;61;20754;-62
2022/12/28 11:05:21;0.00;0.00;0.62;0.00;0.00;0.62;2.40;1.23;;;19.50;28.40;;;;;;2263747;61;20815;-62
2022/12/28 11:08:15;0.00;0.00;0.62;0.00;0.00;0.62;2.83;1.37;;;19.50;28.40;;;;;;2264274;61;20407;-59
2022/12/28 11:11:00;0.00;0.00;0.62;0.00;0.00;0.62;1.60;1.00;;;19.50;28.40;;;;;;2263976;61;20858;-59
2022/12/28 11:13:52;0.00;0.00;0.62;0.00;0.00;0.62;2.37;1.30;;;19.60;28.50;;;;;;2264026;61;20387;-60
2022/12/28 11:16:38;0.00;0.00;0.62;0.00;0.00;0.62;1.53;0.80;;;19.60;28.40;;;;;;2264187;61;20506;-59
2022/12/28 11:19:24;0.00;0.00;0.62;0.00;0.00;0.62;1.40;0.90;;;19.60;28.90;;;;;;2263406;61;20375;-62
2022/12/28 11:22:11;0.00;0.00;0.62;0.00;0.00;0.62;1.60;1.13;;;19.70;28.40;;;;;;2264272;61;20884;-61
2022/12/28 11:24:59;0.00;0.00;0.62;0.00;0.00;0.62;2.73;1.07;;;19.70;28.30;;;;;;2263832;61;20419;-65
2022/12/28 11:27:46;0.00;0.00;0.62;0.00;0.00;0.62;1.70;0.97;;;19.70;28.20;;;;;;2263942;61;20361;-63